Portada
METAR-TAF:

METAR-TAF

Aeroports :

Truckee-Tahoe Airport

Truckee, Califòrnia, Estats Units d'Amèrica

latitud: 39-19N, longitud: 120-08W, altitud: 1798 m

Observació

L'informe es va fer fa 31 minuts, a les 16:50 UTC
Vent calma
Temperatura 0°C
Humitat 59%
Pressió 1033 hPa
Visibilitat: 16.1 km
Cel clar

METAR: KTRK 261650Z 00000KT 10SM SKC 00/M07 A3049

Hora: 09:21 (17:21 UTC)

Pronòstic

L'informe es va fer fa 5 hores i 46 minuts, a les 11:35 UTC
Pronòstic vàlid del 26 a les 12 UTC al 27 a les 12 UTC
Vent kt del Nord
Visibilitat: 10 km
Escasses núvols a una alçada de 18000 ft
Cel ennuvolat a una alçada de 25000 ft
A partir de les 26 a les 2000 UTC
Vent 7 kt del Oest/Sud-Oest
Visibilitat: 10 km
Escasses núvols a una alçada de 20000 ft

TAF: KTRK 261135Z 2612/2712 00000KT P6SM FEW180 BKN250 FM262000 25007KT P6SM FEW200

Observacions i pronòstics meteorològics de més de 4000 aeroports (METAR i TAF).

Les estacions disponibles són els punts grocs i vermells al mapa.

Posi el ratolí al punt desitjat per veure el nom de l'estació.

Feu clic per veure les observacions i els pronòstics meteorològics.

Per canviar el mapa: feu clic els botons verds amb una creu de color negre per apropar; al botó verd amb un guió per allunyar la imatge; o en les fletxes verdes per a mapes adjacents.


METAR-TAF: